sensor_id;sensor_type;location;lat;lon;timestamp;pressure;altitude;pressure_sealevel;temperature;humidity
19286;BME280;9776;50.798;6.430;2023-04-22T00:00:11;99440.38;;;11.65;66.85
19286;BME280;9776;50.798;6.430;2023-04-22T00:02:38;99449.47;;;11.63;67.07
19286;BME280;9776;50.798;6.430;2023-04-22T00:05:06;99445.19;;;11.62;66.90
19286;BME280;9776;50.798;6.430;2023-04-22T00:07:33;99438.59;;;11.58;67.11
19286;BME280;9776;50.798;6.430;2023-04-22T00:10:00;99441.22;;;11.58;67.08
19286;BME280;9776;50.798;6.430;2023-04-22T00:12:28;99434.97;;;11.59;67.22
19286;BME280;9776;50.798;6.430;2023-04-22T00:14:55;99447.19;;;11.60;66.95
19286;BME280;9776;50.798;6.430;2023-04-22T00:17:21;99438.22;;;11.61;67.03
19286;BME280;9776;50.798;6.430;2023-04-22T00:19:49;99442.34;;;11.63;66.85
19286;BME280;9776;50.798;6.430;2023-04-22T00:22:15;99443.34;;;11.62;66.95
19286;BME280;9776;50.798;6.430;2023-04-22T00:24:42;99440.88;;;11.61;67.00
19286;BME280;9776;50.798;6.430;2023-04-22T00:27:08;99439.06;;;11.61;66.81
19286;BME280;9776;50.798;6.430;2023-04-22T00:29:37;99437.41;;;11.60;67.12
19286;BME280;9776;50.798;6.430;2023-04-22T00:32:03;99435.94;;;11.58;67.01
19286;BME280;9776;50.798;6.430;2023-04-22T00:34:30;99434.13;;;11.58;67.10
19286;BME280;9776;50.798;6.430;2023-04-22T00:36:57;99439.59;;;11.57;67.12
19286;BME280;9776;50.798;6.430;2023-04-22T00:39:23;99431.72;;;11.49;67.44
19286;BME280;9776;50.798;6.430;2023-04-22T00:41:51;99438.03;;;11.48;67.32
19286;BME280;9776;50.798;6.430;2023-04-22T00:44:18;99439.47;;;11.50;67.16
19286;BME280;9776;50.798;6.430;2023-04-22T00:46:46;99440.31;;;11.51;67.18
19286;BME280;9776;50.798;6.430;2023-04-22T00:49:13;99429.56;;;11.52;67.15
19286;BME280;9776;50.798;6.430;2023-04-22T00:51:41;99437.66;;;11.51;67.30
19286;BME280;9776;50.798;6.430;2023-04-22T00:54:07;99434.06;;;11.44;67.38
19286;BME280;9776;50.798;6.430;2023-04-22T00:56:34;99437.97;;;11.33;67.62
19286;BME280;9776;50.798;6.430;2023-04-22T00:59:03;99435.31;;;11.33;67.83
19286;BME280;9776;50.798;6.430;2023-04-22T01:01:30;99436.78;;;11.35;67.71
19286;BME280;9776;50.798;6.430;2023-04-22T01:03:58;99426.91;;;11.29;67.88
19286;BME280;9776;50.798;6.430;2023-04-22T01:06:27;99428.09;;;11.27;68.02
19286;BME280;9776;50.798;6.430;2023-04-22T01:08:55;99424.81;;;11.25;68.06
19286;BME280;9776;50.798;6.430;2023-04-22T01:11:23;99424.91;;;11.31;67.87
19286;BME280;9776;50.798;6.430;2023-04-22T01:13:49;99423.91;;;11.32;67.75
19286;BME280;9776;50.798;6.430;2023-04-22T01:16:17;99424.63;;;11.26;68.00
19286;BME280;9776;50.798;6.430;2023-04-22T01:18:44;99426.97;;;11.21;68.12
19286;BME280;9776;50.798;6.430;2023-04-22T01:21:12;99422.75;;;11.12;68.48
19286;BME280;9776;50.798;6.430;2023-04-22T01:23:40;99420.94;;;11.13;68.52
19286;BME280;9776;50.798;6.430;2023-04-22T01:26:07;99422.38;;;11.15;68.51
19286;BME280;9776;50.798;6.430;2023-04-22T01:28:33;99423.44;;;11.06;68.76
19286;BME280;9776;50.798;6.430;2023-04-22T01:31:00;99412.53;;;11.09;68.90
19286;BME280;9776;50.798;6.430;2023-04-22T01:33:27;99419.94;;;11.14;68.65
19286;BME280;9776;50.798;6.430;2023-04-22T01:35:54;99420.72;;;11.14;68.72
19286;BME280;9776;50.798;6.430;2023-04-22T01:38:21;99419.31;;;11.04;69.18
19286;BME280;9776;50.798;6.430;2023-04-22T01:40:50;99416.41;;;10.99;69.36
19286;BME280;9776;50.798;6.430;2023-04-22T01:43:16;99417.22;;;10.99;69.53
19286;BME280;9776;50.798;6.430;2023-04-22T01:45:43;99414.69;;;11.06;69.31
19286;BME280;9776;50.798;6.430;2023-04-22T01:48:10;99415.94;;;11.18;69.31
19286;BME280;9776;50.798;6.430;2023-04-22T01:50:36;99407.94;;;11.26;68.92
19286;BME280;9776;50.798;6.430;2023-04-22T01:53:06;99405.28;;;11.34;68.70
19286;BME280;9776;50.798;6.430;2023-04-22T01:55:32;99408.19;;;11.39;68.71
19286;BME280;9776;50.798;6.430;2023-04-22T01:58:01;99405.00;;;11.44;68.71
19286;BME280;9776;50.798;6.430;2023-04-22T02:00:28;99406.31;;;11.48;68.57
19286;BME280;9776;50.798;6.430;2023-04-22T02:02:55;99404.31;;;11.50;68.76
19286;BME280;9776;50.798;6.430;2023-04-22T02:05:22;99400.47;;;11.52;68.66
19286;BME280;9776;50.798;6.430;2023-04-22T02:07:50;99393.38;;;11.53;68.57
19286;BME280;9776;50.798;6.430;2023-04-22T02:10:17;99400.47;;;11.52;68.54
19286;BME280;9776;50.798;6.430;2023-04-22T02:12:44;99400.75;;;11.57;68.58
19286;BME280;9776;50.798;6.430;2023-04-22T02:15:12;99398.31;;;11.56;68.64
19286;BME280;9776;50.798;6.430;2023-04-22T02:17:40;99397.31;;;11.57;68.86
19286;BME280;9776;50.798;6.430;2023-04-22T02:20:08;99397.94;;;11.59;68.86
19286;BME280;9776;50.798;6.430;2023-04-22T02:22:35;99399.25;;;11.63;68.90
19286;BME280;9776;50.798;6.430;2023-04-22T02:25:03;99398.91;;;11.66;69.05
19286;BME280;9776;50.798;6.430;2023-04-22T02:27:29;99392.31;;;11.62;68.88
19286;BME280;9776;50.798;6.430;2023-04-22T02:29:56;99393.03;;;11.56;69.18
19286;BME280;9776;50.798;6.430;2023-04-22T02:32:24;99391.72;;;11.52;69.42
19286;BME280;9776;50.798;6.430;2023-04-22T02:34:51;99384.47;;;11.54;69.49
19286;BME280;9776;50.798;6.430;2023-04-22T02:37:17;99380.38;;;11.51;69.64
19286;BME280;9776;50.798;6.430;2023-04-22T02:39:44;99385.09;;;11.56;69.73
19286;BME280;9776;50.798;6.430;2023-04-22T02:42:11;99386.03;;;11.63;69.63
19286;BME280;9776;50.798;6.430;2023-04-22T02:44:38;99380.19;;;11.67;69.60
19286;BME280;9776;50.798;6.430;2023-04-22T02:47:05;99375.75;;;11.68;69.67
19286;BME280;9776;50.798;6.430;2023-04-22T02:49:33;99373.59;;;11.71;69.80
19286;BME280;9776;50.798;6.430;2023-04-22T02:52:00;99368.13;;;11.73;69.91
19286;BME280;9776;50.798;6.430;2023-04-22T02:54:27;99365.59;;;11.79;70.00
19286;BME280;9776;50.798;6.430;2023-04-22T02:56:53;99367.03;;;11.82;69.79
19286;BME280;9776;50.798;6.430;2023-04-22T02:59:20;99367.88;;;11.82;70.07
19286;BME280;9776;50.798;6.430;2023-04-22T03:01:46;99379.06;;;11.84;69.99
19286;BME280;9776;50.798;6.430;2023-04-22T03:04:13;99368.34;;;11.86;70.19
19286;BME280;9776;50.798;6.430;2023-04-22T03:06:41;99370.97;;;11.86;70.21
19286;BME280;9776;50.798;6.430;2023-04-22T03:09:08;99370.31;;;11.84;70.35
19286;BME280;9776;50.798;6.430;2023-04-22T03:11:35;99360.22;;;11.87;70.27
19286;BME280;9776;50.798;6.430;2023-04-22T03:14:01;99362.28;;;11.92;70.18
19286;BME280;9776;50.798;6.430;2023-04-22T03:16:28;99362.97;;;11.94;70.48
19286;BME280;9776;50.798;6.430;2023-04-22T03:18:54;99360.94;;;11.96;70.55
19286;BME280;9776;50.798;6.430;2023-04-22T03:21:21;99363.84;;;12.01;70.37
19286;BME280;9776;50.798;6.430;2023-04-22T03:23:49;99360.84;;;12.04;70.45
19286;BME280;9776;50.798;6.430;2023-04-22T03:26:16;99360.69;;;12.06;70.48
19286;BME280;9776;50.798;6.430;2023-04-22T03:28:42;99350.28;;;12.04;70.51
19286;BME280;9776;50.798;6.430;2023-04-22T03:31:09;99354.56;;;12.05;70.57
19286;BME280;9776;50.798;6.430;2023-04-22T03:33:35;99347.81;;;12.03;70.74
19286;BME280;9776;50.798;6.430;2023-04-22T03:36:02;99346.00;;;12.03;70.71
19286;BME280;9776;50.798;6.430;2023-04-22T03:38:29;99341.34;;;12.05;70.66
19286;BME280;9776;50.798;6.430;2023-04-22T03:40:57;99339.31;;;12.07;70.57
19286;BME280;9776;50.798;6.430;2023-04-22T03:43:23;99335.69;;;12.08;70.44
19286;BME280;9776;50.798;6.430;2023-04-22T03:45:50;99330.56;;;12.07;70.46
19286;BME280;9776;50.798;6.430;2023-04-22T03:48:17;99334.59;;;12.03;70.47
19286;BME280;9776;50.798;6.430;2023-04-22T03:50:43;99329.31;;;12.03;70.58
19286;BME280;9776;50.798;6.430;2023-04-22T03:53:10;99328.47;;;12.02;70.38
19286;BME280;9776;50.798;6.430;2023-04-22T03:55:37;99319.91;;;12.00;70.55
19286;BME280;9776;50.798;6.430;2023-04-22T03:58:05;99322.19;;;12.03;70.28
19286;BME280;9776;50.798;6.430;2023-04-22T04:00:31;99323.34;;;12.01;70.27
19286;BME280;9776;50.798;6.430;2023-04-22T04:02:58;99319.91;;;12.00;70.30
19286;BME280;9776;50.798;6.430;2023-04-22T04:05:25;99319.47;;;11.97;70.44
19286;BME280;9776;50.798;6.430;2023-04-22T04:07:51;99312.06;;;11.92;70.56
19286;BME280;9776;50.798;6.430;2023-04-22T04:10:18;99313.44;;;11.88;70.42
19286;BME280;9776;50.798;6.430;2023-04-22T04:12:45;99314.63;;;11.85;70.60
19286;BME280;9776;50.798;6.430;2023-04-22T04:15:13;99324.66;;;11.90;70.47
19286;BME280;9776;50.798;6.430;2023-04-22T04:17:39;99320.81;;;11.92;70.47
19286;BME280;9776;50.798;6.430;2023-04-22T04:20:07;99313.72;;;11.93;70.59
19286;BME280;9776;50.798;6.430;2023-04-22T04:22:34;99311.06;;;11.93;70.68
19286;BME280;9776;50.798;6.430;2023-04-22T04:25:00;99302.97;;;11.94;70.64
19286;BME280;9776;50.798;6.430;2023-04-22T04:27:27;99300.03;;;11.89;70.68
19286;BME280;9776;50.798;6.430;2023-04-22T04:29:54;99295.56;;;11.90;70.81
19286;BME280;9776;50.798;6.430;2023-04-22T04:32:22;99297.94;;;11.85;70.62
19286;BME280;9776;50.798;6.430;2023-04-22T04:34:49;99302.41;;;11.84;70.75
19286;BME280;9776;50.798;6.430;2023-04-22T04:37:16;99302.25;;;11.86;70.68
19286;BME280;9776;50.798;6.430;2023-04-22T04:39:43;99302.66;;;11.89;70.76
19286;BME280;9776;50.798;6.430;2023-04-22T04:42:10;99296.19;;;11.92;70.64
19286;BME280;9776;50.798;6.430;2023-04-22T04:44:38;99295.03;;;11.94;70.53
19286;BME280;9776;50.798;6.430;2023-04-22T04:47:05;99287.91;;;11.95;70.40
19286;BME280;9776;50.798;6.430;2023-04-22T04:49:33;99287.72;;;11.97;70.60
19286;BME280;9776;50.798;6.430;2023-04-22T04:52:04;99292.81;;;11.98;70.55
19286;BME280;9776;50.798;6.430;2023-04-22T04:54:31;99285.53;;;12.00;70.47
19286;BME280;9776;50.798;6.430;2023-04-22T04:56:58;99290.84;;;12.00;70.32
19286;BME280;9776;50.798;6.430;2023-04-22T04:59:26;99275.41;;;12.04;70.29
19286;BME280;9776;50.798;6.430;2023-04-22T05:01:52;99277.88;;;12.05;70.28
19286;BME280;9776;50.798;6.430;2023-04-22T05:04:20;99277.66;;;12.07;70.27
19286;BME280;9776;50.798;6.430;2023-04-22T05:06:47;99275.13;;;12.13;70.22
19286;BME280;9776;50.798;6.430;2023-04-22T05:09:14;99283.69;;;12.15;70.07
19286;BME280;9776;50.798;6.430;2023-04-22T05:11:41;99289.44;;;12.19;69.99
19286;BME280;9776;50.798;6.430;2023-04-22T05:14:07;99285.41;;;12.23;69.76
19286;BME280;9776;50.798;6.430;2023-04-22T05:16:34;99280.59;;;12.26;69.96
19286;BME280;9776;50.798;6.430;2023-04-22T05:19:01;99281.84;;;12.30;69.95
19286;BME280;9776;50.798;6.430;2023-04-22T05:21:27;99287.38;;;12.35;69.68
19286;BME280;9776;50.798;6.430;2023-04-22T05:23:57;99284.81;;;12.42;69.65
19286;BME280;9776;50.798;6.430;2023-04-22T05:26:23;99278.97;;;12.46;69.40
19286;BME280;9776;50.798;6.430;2023-04-22T05:28:50;99280.22;;;12.50;69.38
19286;BME280;9776;50.798;6.430;2023-04-22T05:31:17;99277.22;;;12.53;69.26
19286;BME280;9776;50.798;6.430;2023-04-22T05:33:43;99269.53;;;12.59;69.31
19286;BME280;9776;50.798;6.430;2023-04-22T05:36:10;99275.72;;;12.66;69.08
19286;BME280;9776;50.798;6.430;2023-04-22T05:38:36;99277.63;;;12.72;68.92
19286;BME280;9776;50.798;6.430;2023-04-22T05:41:04;99283.97;;;12.77;68.94
19286;BME280;9776;50.798;6.430;2023-04-22T05:43:31;99280.75;;;12.82;68.94
19286;BME280;9776;50.798;6.430;2023-04-22T05:45:57;99285.69;;;12.85;68.55
19286;BME280;9776;50.798;6.430;2023-04-22T05:48:24;99279.63;;;12.91;68.45
19286;BME280;9776;50.798;6.430;2023-04-22T05:50:51;99281.72;;;12.95;68.46
19286;BME280;9776;50.798;6.430;2023-04-22T05:53:18;99282.03;;;13.07;68.54
19286;BME280;9776;50.798;6.430;2023-04-22T05:55:45;99268.91;;;13.20;68.10
19286;BME280;9776;50.798;6.430;2023-04-22T05:58:13;99266.41;;;13.40;68.04
19286;BME280;9776;50.798;6.430;2023-04-22T06:00:40;99272.88;;;13.65;67.25
19286;BME280;9776;50.798;6.430;2023-04-22T06:03:06;99265.34;;;13.96;66.49
19286;BME280;9776;50.798;6.430;2023-04-22T06:05:33;99257.88;;;14.26;65.49
19286;BME280;9776;50.798;6.430;2023-04-22T06:07:59;99259.69;;;14.60;64.60
19286;BME280;9776;50.798;6.430;2023-04-22T06:10:26;99257.28;;;14.91;63.76
19286;BME280;9776;50.798;6.430;2023-04-22T06:12:52;99269.16;;;15.15;62.97
19286;BME280;9776;50.798;6.430;2023-04-22T06:15:20;99258.09;;;15.18;62.73
19286;BME280;9776;50.798;6.430;2023-04-22T06:17:47;99267.09;;;15.17;62.41
19286;BME280;9776;50.798;6.430;2023-04-22T06:20:14;99266.88;;;15.18;62.40
19286;BME280;9776;50.798;6.430;2023-04-22T06:22:40;99264.44;;;15.17;62.18
19286;BME280;9776;50.798;6.430;2023-04-22T06:25:07;99262.59;;;15.11;62.44
19286;BME280;9776;50.798;6.430;2023-04-22T06:27:34;99255.84;;;15.02;62.17
19286;BME280;9776;50.798;6.430;2023-04-22T06:30:02;99257.28;;;14.91;62.41
19286;BME280;9776;50.798;6.430;2023-04-22T06:32:30;99251.53;;;14.94;62.19
19286;BME280;9776;50.798;6.430;2023-04-22T06:34:57;99250.28;;;15.29;61.18
19286;BME280;9776;50.798;6.430;2023-04-22T06:37:23;99260.69;;;15.77;60.02
19286;BME280;9776;50.798;6.430;2023-04-22T06:39:51;99253.59;;;16.22;58.81
19286;BME280;9776;50.798;6.430;2023-04-22T06:42:17;99254.25;;;16.48;57.80
19286;BME280;9776;50.798;6.430;2023-04-22T06:44:44;99244.78;;;16.66;57.09
19286;BME280;9776;50.798;6.430;2023-04-22T06:47:11;99252.81;;;16.90;56.38
19286;BME280;9776;50.798;6.430;2023-04-22T06:49:38;99234.97;;;17.16;55.54
19286;BME280;9776;50.798;6.430;2023-04-22T06:52:05;99247.22;;;17.23;54.93
19286;BME280;9776;50.798;6.430;2023-04-22T06:54:32;99245.84;;;17.39;54.32
19286;BME280;9776;50.798;6.430;2023-04-22T06:56:58;99251.47;;;17.55;53.52
19286;BME280;9776;50.798;6.430;2023-04-22T06:59:25;99254.22;;;17.67;53.21
19286;BME280;9776;50.798;6.430;2023-04-22T07:01:52;99249.03;;;17.72;52.34
19286;BME280;9776;50.798;6.430;2023-04-22T07:04:19;99253.03;;;17.99;52.03
19286;BME280;9776;50.798;6.430;2023-04-22T07:06:47;99241.31;;;18.19;51.28
19286;BME280;9776;50.798;6.430;2023-04-22T07:09:14;99242.22;;;17.94;51.41
19286;BME280;9776;50.798;6.430;2023-04-22T07:11:40;99245.72;;;17.95;51.33
19286;BME280;9776;50.798;6.430;2023-04-22T07:14:07;99247.97;;;18.09;51.06
19286;BME280;9776;50.798;6.430;2023-04-22T07:16:33;99240.72;;;18.17;50.30
19286;BME280;9776;50.798;6.430;2023-04-22T07:19:00;99241.28;;;18.37;50.19
19286;BME280;9776;50.798;6.430;2023-04-22T07:21:27;99232.81;;;18.58;49.47
19286;BME280;9776;50.798;6.430;2023-04-22T07:23:55;99231.69;;;18.77;49.21
19286;BME280;9776;50.798;6.430;2023-04-22T07:26:21;99234.78;;;19.04;48.61
19286;BME280;9776;50.798;6.430;2023-04-22T07:28:48;99219.47;;;19.46;47.88
19286;BME280;9776;50.798;6.430;2023-04-22T07:31:15;99222.47;;;19.72;47.30
19286;BME280;9776;50.798;6.430;2023-04-22T07:33:41;99230.47;;;19.96;46.53
19286;BME280;9776;50.798;6.430;2023-04-22T07:36:08;99229.25;;;20.03;46.25
19286;BME280;9776;50.798;6.430;2023-04-22T07:38:34;99215.84;;;20.15;46.30
19286;BME280;9776;50.798;6.430;2023-04-22T07:41:03;99211.88;;;19.66;46.42
19286;BME280;9776;50.798;6.430;2023-04-22T07:43:29;99212.94;;;19.30;47.13
19286;BME280;9776;50.798;6.430;2023-04-22T07:45:56;99193.41;;;19.41;47.20
19286;BME280;9776;50.798;6.430;2023-04-22T07:48:22;99198.03;;;19.57;46.62
19286;BME280;9776;50.798;6.430;2023-04-22T07:50:49;99195.44;;;19.74;45.94
19286;BME280;9776;50.798;6.430;2023-04-22T07:53:16;99195.97;;;19.99;45.39
19286;BME280;9776;50.798;6.430;2023-04-22T07:55:44;99197.84;;;20.38;44.42
19286;BME280;9776;50.798;6.430;2023-04-22T07:58:12;99202.19;;;20.73;43.67
19286;BME280;9776;50.798;6.430;2023-04-22T08:00:38;99195.50;;;21.20;42.90
19286;BME280;9776;50.798;6.430;2023-04-22T08:03:05;99204.63;;;21.58;42.32
19286;BME280;9776;50.798;6.430;2023-04-22T08:05:31;99185.84;;;21.58;42.35
19286;BME280;9776;50.798;6.430;2023-04-22T08:07:58;99194.78;;;21.08;42.74
19286;BME280;9776;50.798;6.430;2023-04-22T08:10:25;99195.59;;;20.64;43.66
19286;BME280;9776;50.798;6.430;2023-04-22T08:12:51;99199.25;;;20.58;43.72
19286;BME280;9776;50.798;6.430;2023-04-22T08:15:19;99202.88;;;20.97;43.04
19286;BME280;9776;50.798;6.430;2023-04-22T08:17:46;99207.69;;;21.28;42.52
19286;BME280;9776;50.798;6.430;2023-04-22T08:20:13;99200.41;;;21.83;41.61
19286;BME280;9776;50.798;6.430;2023-04-22T08:22:42;99193.16;;;22.27;40.94
19286;BME280;9776;50.798;6.430;2023-04-22T08:25:09;99192.16;;;22.33;40.43
19286;BME280;9776;50.798;6.430;2023-04-22T08:27:36;99190.22;;;22.29;40.61
19286;BME280;9776;50.798;6.430;2023-04-22T08:30:03;99193.06;;;22.44;40.43
19286;BME280;9776;50.798;6.430;2023-04-22T08:32:31;99180.31;;;22.61;40.32
19286;BME280;9776;50.798;6.430;2023-04-22T08:34:58;99193.25;;;22.91;39.65
19286;BME280;9776;50.798;6.430;2023-04-22T08:37:25;99199.41;;;22.86;39.32
19286;BME280;9776;50.798;6.430;2023-04-22T08:39:52;99195.63;;;22.82;39.02
19286;BME280;9776;50.798;6.430;2023-04-22T08:42:19;99186.69;;;23.45;37.96
19286;BME280;9776;50.798;6.430;2023-04-22T08:44:47;99184.84;;;24.13;36.68
19286;BME280;9776;50.798;6.430;2023-04-22T08:47:14;99184.97;;;24.58;35.70
19286;BME280;9776;50.798;6.430;2023-04-22T08:49:44;99190.94;;;25.06;35.06
19286;BME280;9776;50.798;6.430;2023-04-22T08:52:11;99180.09;;;25.51;34.57
19286;BME280;9776;50.798;6.430;2023-04-22T08:54:39;99169.13;;;25.97;33.74
19286;BME280;9776;50.798;6.430;2023-04-22T08:57:06;99180.88;;;26.31;33.89
19286;BME280;9776;50.798;6.430;2023-04-22T08:59:35;99179.81;;;26.66;33.44
19286;BME280;9776;50.798;6.430;2023-04-22T09:02:03;99176.06;;;27.00;32.87
19286;BME280;9776;50.798;6.430;2023-04-22T09:04:30;99171.44;;;27.30;32.34
19286;BME280;9776;50.798;6.430;2023-04-22T09:06:58;99169.34;;;27.50;31.74
19286;BME280;9776;50.798;6.430;2023-04-22T09:09:27;99163.16;;;27.16;32.01
19286;BME280;9776;50.798;6.430;2023-04-22T09:11:56;99170.38;;;26.97;32.45
19286;BME280;9776;50.798;6.430;2023-04-22T09:14:23;99166.88;;;27.25;32.10
19286;BME280;9776;50.798;6.430;2023-04-22T09:16:50;99164.41;;;26.66;32.74
19286;BME280;9776;50.798;6.430;2023-04-22T09:19:17;99163.88;;;26.20;33.28
19286;BME280;9776;50.798;6.430;2023-04-22T09:21:44;99171.84;;;26.84;32.76
19286;BME280;9776;50.798;6.430;2023-04-22T09:24:12;99168.56;;;27.50;31.61
19286;BME280;9776;50.798;6.430;2023-04-22T09:26:39;99174.28;;;28.52;30.56
19286;BME280;9776;50.798;6.430;2023-04-22T09:29:12;99182.84;;;29.29;29.30
19286;BME280;9776;50.798;6.430;2023-04-22T09:31:39;99171.03;;;30.42;28.42
19286;BME280;9776;50.798;6.430;2023-04-22T09:34:06;99192.22;;;30.31;28.16
19286;BME280;9776;50.798;6.430;2023-04-22T09:36:33;99179.34;;;30.23;28.09
19286;BME280;9776;50.798;6.430;2023-04-22T09:39:03;99184.22;;;31.07;27.25
19286;BME280;9776;50.798;6.430;2023-04-22T09:41:33;99174.28;;;30.88;27.49
19286;BME280;9776;50.798;6.430;2023-04-22T09:44:02;99169.94;;;31.63;26.61
19286;BME280;9776;50.798;6.430;2023-04-22T09:46:30;99177.66;;;32.34;25.61
19286;BME280;9776;50.798;6.430;2023-04-22T09:48:58;99183.28;;;32.29;25.84
19286;BME280;9776;50.798;6.430;2023-04-22T09:51:26;99198.03;;;31.10;27.20
19286;BME280;9776;50.798;6.430;2023-04-22T09:53:59;99197.59;;;29.09;29.46
19286;BME280;9776;50.798;6.430;2023-04-22T09:56:51;99215.59;;;27.83;30.89
19286;BME280;9776;50.798;6.430;2023-04-22T09:59:21;99213.97;;;27.00;31.70
19286;BME280;9776;50.798;6.430;2023-04-22T10:01:50;99219.41;;;25.92;32.97
19286;BME280;9776;50.798;6.430;2023-04-22T10:04:18;99220.34;;;25.22;34.29
19286;BME280;9776;50.798;6.430;2023-04-22T10:06:47;99221.69;;;25.40;33.85
19286;BME280;9776;50.798;6.430;2023-04-22T10:09:16;99216.81;;;25.47;33.80
19286;BME280;9776;50.798;6.430;2023-04-22T10:11:44;99212.16;;;25.78;33.43
19286;BME280;9776;50.798;6.430;2023-04-22T10:14:12;99218.16;;;26.39;32.36
19286;BME280;9776;50.798;6.430;2023-04-22T10:16:41;99223.63;;;27.40;31.08
19286;BME280;9776;50.798;6.430;2023-04-22T10:19:10;99229.97;;;27.59;31.17
19286;BME280;9776;50.798;6.430;2023-04-22T10:21:39;99218.03;;;27.60;31.11
19286;BME280;9776;50.798;6.430;2023-04-22T10:24:06;99223.31;;;27.71;31.07
19286;BME280;9776;50.798;6.430;2023-04-22T10:26:47;99224.59;;;28.26;30.38
19286;BME280;9776;50.798;6.430;2023-04-22T10:29:16;99219.16;;;28.26;30.61
19286;BME280;9776;50.798;6.430;2023-04-22T10:31:44;99221.06;;;27.54;31.17
19286;BME280;9776;50.798;6.430;2023-04-22T10:34:12;99228.03;;;27.02;32.01
19286;BME280;9776;50.798;6.430;2023-04-22T10:36:59;99224.50;;;26.63;32.91
19286;BME280;9776;50.798;6.430;2023-04-22T10:39:27;99214.28;;;26.50;33.07
19286;BME280;9776;50.798;6.430;2023-04-22T10:41:57;99219.00;;;26.34;33.02
19286;BME280;9776;50.798;6.430;2023-04-22T10:44:45;99217.22;;;25.94;33.06
19286;BME280;9776;50.798;6.430;2023-04-22T10:47:23;99216.28;;;25.55;33.17
19286;BME280;9776;50.798;6.430;2023-04-22T10:49:50;99212.25;;;26.27;32.49
19286;BME280;9776;50.798;6.430;2023-04-22T10:52:26;99211.38;;;26.41;32.09
19286;BME280;9776;50.798;6.430;2023-04-22T10:54:57;99215.91;;;25.97;32.80
19286;BME280;9776;50.798;6.430;2023-04-22T10:57:38;99209.31;;;26.13;32.46
19286;BME280;9776;50.798;6.430;2023-04-22T11:00:26;99207.22;;;26.00;32.65
19286;BME280;9776;50.798;6.430;2023-04-22T11:03:05;99197.91;;;25.57;33.31
19286;BME280;9776;50.798;6.430;2023-04-22T11:05:33;99197.16;;;25.01;34.34
19286;BME280;9776;50.798;6.430;2023-04-22T11:08:01;99201.16;;;24.78;35.24
19286;BME280;9776;50.798;6.430;2023-04-22T11:10:34;99197.97;;;24.81;35.06
19286;BME280;9776;50.798;6.430;2023-04-22T11:13:05;99204.97;;;24.93;35.36
19286;BME280;9776;50.798;6.430;2023-04-22T11:15:36;99207.91;;;25.47;34.57
19286;BME280;9776;50.798;6.430;2023-04-22T11:18:07;99201.56;;;25.97;33.48
19286;BME280;9776;50.798;6.430;2023-04-22T11:20:34;99205.34;;;25.95;33.58
19286;BME280;9776;50.798;6.430;2023-04-22T11:23:02;99212.50;;;25.61;33.69
19286;BME280;9776;50.798;6.430;2023-04-22T11:25:29;99210.31;;;25.43;33.90
19286;BME280;9776;50.798;6.430;2023-04-22T11:27:56;99220.09;;;24.89;34.88
19286;BME280;9776;50.798;6.430;2023-04-22T11:30:24;99211.34;;;24.36;35.72
19286;BME280;9776;50.798;6.430;2023-04-22T11:32:53;99215.94;;;23.79;36.90
19286;BME280;9776;50.798;6.430;2023-04-22T11:35:23;99222.75;;;23.12;37.93
19286;BME280;9776;50.798;6.430;2023-04-22T11:37:55;99225.72;;;22.57;38.65
19286;BME280;9776;50.798;6.430;2023-04-22T11:40:23;99233.72;;;22.26;39.26
19286;BME280;9776;50.798;6.430;2023-04-22T11:42:51;99249.44;;;22.12;39.43
19286;BME280;9776;50.798;6.430;2023-04-22T11:45:19;99242.22;;;22.18;39.31
19286;BME280;9776;50.798;6.430;2023-04-22T11:47:46;99252.09;;;22.34;38.93
19286;BME280;9776;50.798;6.430;2023-04-22T11:50:17;99244.75;;;22.24;38.90
19286;BME280;9776;50.798;6.430;2023-04-22T11:52:45;99243.88;;;22.19;39.12
19286;BME280;9776;50.798;6.430;2023-04-22T11:55:13;99240.06;;;22.15;39.15
19286;BME280;9776;50.798;6.430;2023-04-22T11:57:41;99245.81;;;22.01;39.29
19286;BME280;9776;50.798;6.430;2023-04-22T12:00:11;99248.19;;;21.98;39.44
19286;BME280;9776;50.798;6.430;2023-04-22T12:02:39;99244.28;;;21.89;39.74
19286;BME280;9776;50.798;6.430;2023-04-22T12:05:08;99243.88;;;21.80;40.00
19286;BME280;9776;50.798;6.430;2023-04-22T12:07:38;99252.47;;;21.61;40.31
19286;BME280;9776;50.798;6.430;2023-04-22T12:10:06;99254.44;;;21.48;40.65
19286;BME280;9776;50.798;6.430;2023-04-22T12:12:33;99246.00;;;21.40;40.61
19286;BME280;9776;50.798;6.430;2023-04-22T12:15:09;99240.38;;;21.25;40.96
19286;BME280;9776;50.798;6.430;2023-04-22T12:17:36;99248.50;;;21.30;41.16
19286;BME280;9776;50.798;6.430;2023-04-22T12:20:03;99244.34;;;21.39;41.01
19286;BME280;9776;50.798;6.430;2023-04-22T12:22:31;99240.78;;;21.33;41.28
19286;BME280;9776;50.798;6.430;2023-04-22T12:25:00;99234.59;;;21.33;41.16
19286;BME280;9776;50.798;6.430;2023-04-22T12:27:27;99245.03;;;21.29;41.40
19286;BME280;9776;50.798;6.430;2023-04-22T12:29:55;99256.16;;;21.21;41.55
19286;BME280;9776;50.798;6.430;2023-04-22T12:32:25;99260.84;;;20.98;42.39
19286;BME280;9776;50.798;6.430;2023-04-22T12:34:52;99264.16;;;20.88;42.35
19286;BME280;9776;50.798;6.430;2023-04-22T12:37:18;99263.00;;;20.84;42.50
19286;BME280;9776;50.798;6.430;2023-04-22T12:39:45;99253.34;;;20.83;42.33
19286;BME280;9776;50.798;6.430;2023-04-22T12:42:14;99250.88;;;20.81;42.35
19286;BME280;9776;50.798;6.430;2023-04-22T12:44:41;99248.88;;;20.88;42.53
19286;BME280;9776;50.798;6.430;2023-04-22T12:47:08;99249.72;;;21.06;42.18
19286;BME280;9776;50.798;6.430;2023-04-22T12:49:35;99243.06;;;21.08;42.03
19286;BME280;9776;50.798;6.430;2023-04-22T12:52:03;99239.31;;;21.26;41.69
19286;BME280;9776;50.798;6.430;2023-04-22T12:54:30;99248.41;;;21.41;41.47
19286;BME280;9776;50.798;6.430;2023-04-22T12:56:57;99221.56;;;21.41;41.47
19286;BME280;9776;50.798;6.430;2023-04-22T12:59:25;99223.19;;;21.42;41.61
19286;BME280;9776;50.798;6.430;2023-04-22T13:01:51;99235.56;;;21.43;41.64
19286;BME280;9776;50.798;6.430;2023-04-22T13:04:19;99236.94;;;21.46;41.42
19286;BME280;9776;50.798;6.430;2023-04-22T13:06:46;99231.31;;;21.47;41.67
19286;BME280;9776;50.798;6.430;2023-04-22T13:09:14;99240.13;;;21.43;41.67
19286;BME280;9776;50.798;6.430;2023-04-22T13:11:41;99252.81;;;21.14;42.22